createdAt,value
2022-07-29T00:01:19.436Z,96142.50
2022-07-29T00:06:23.585Z,96150.91
2022-07-29T00:11:26.547Z,96143.16
2022-07-29T00:16:29.874Z,96143.22
2022-07-29T00:21:36.025Z,96147.06
2022-07-29T00:26:39.380Z,96136.13
2022-07-29T00:31:42.722Z,96136.94
2022-07-29T00:36:45.979Z,96147.97
2022-07-29T00:41:49.033Z,96140.88
2022-07-29T00:46:52.307Z,96147.56
2022-07-29T00:51:56.019Z,96143.09
2022-07-29T00:57:02.309Z,96138.06
2022-07-29T01:02:05.750Z,96129.50
2022-07-29T01:07:09.510Z,96120.91
2022-07-29T01:12:14.755Z,96120.22
2022-07-29T01:17:53.466Z,96121.72
2022-07-29T01:23:23.043Z,96127.06
2022-07-29T01:28:40.233Z,96135.97
2022-07-29T01:33:51.947Z,96124.34
2022-07-29T01:39:14.091Z,96105.56
2022-07-29T01:44:22.249Z,96102.56
2022-07-29T01:49:42.052Z,96103.03
2022-07-29T01:54:50.655Z,96104.25
2022-07-29T01:59:54.948Z,96097.41
2022-07-29T02:05:00.023Z,96097.25
2022-07-29T02:10:05.669Z,96082.50
2022-07-29T02:15:11.458Z,96085.84
2022-07-29T02:25:13.739Z,96065.81
2022-07-29T02:30:19.164Z,96062.81
2022-07-29T02:35:23.779Z,96061.00
2022-07-29T02:40:27.173Z,96061.00
2022-07-29T02:45:31.678Z,96050.13
2022-07-29T02:50:44.284Z,96061.88
2022-07-29T02:55:57.177Z,96066.41
2022-07-29T03:01:06.563Z,96059.22
2022-07-29T03:06:37.610Z,96062.88
2022-07-29T03:11:42.328Z,96059.28
2022-07-29T03:16:54.026Z,96071.44
2022-07-29T03:21:59.482Z,96067.38
2022-07-29T03:27:03.870Z,96068.94
2022-07-29T03:32:08.964Z,96068.47
2022-07-29T03:37:12.897Z,96059.84
2022-07-29T03:42:22.877Z,96059.16
2022-07-29T03:47:43.712Z,96064.53
2022-07-29T03:52:53.064Z,96061.47
2022-07-29T03:57:59.996Z,96064.50
2022-07-29T04:03:05.585Z,96069.84
2022-07-29T04:08:14.219Z,96073.47
2022-07-29T04:13:18.202Z,96078.09
2022-07-29T04:18:21.770Z,96078.09
2022-07-29T04:23:28.710Z,96085.44
2022-07-29T04:28:32.150Z,96086.16
2022-07-29T04:33:35.470Z,96088.47
2022-07-29T04:38:42.428Z,96085.66
2022-07-29T04:43:48.916Z,96095.53
2022-07-29T04:48:52.424Z,96105.97
2022-07-29T04:53:56.053Z,96100.78
2022-07-29T04:58:59.976Z,96098.63
2022-07-29T05:04:03.313Z,96101.34
2022-07-29T05:09:07.132Z,96109.91
2022-07-29T05:14:11.902Z,96115.91
2022-07-29T05:19:15.648Z,96123.97
2022-07-29T05:24:19.625Z,96125.41
2022-07-29T05:29:44.680Z,96105.63
2022-07-29T05:34:50.970Z,96107.75
2022-07-29T05:39:56.909Z,96115.66
2022-07-29T05:45:00.828Z,96118.53
2022-07-29T05:50:06.117Z,96129.50
2022-07-29T05:55:09.695Z,96125.72
2022-07-29T06:00:13.141Z,96125.00
2022-07-29T06:05:17.336Z,96130.03
2022-07-29T06:10:20.959Z,96125.38
2022-07-29T06:15:41.806Z,96140.72
2022-07-29T06:21:18.411Z,96141.22
2022-07-29T06:32:27.514Z,96108.09
2022-07-29T06:37:31.220Z,96095.41
2022-07-29T06:43:23.229Z,96135.13
2022-07-29T06:55:38.035Z,96113.53
2022-07-29T07:00:41.055Z,96131.09
2022-07-29T07:05:44.784Z,96145.09
2022-07-29T07:10:50.565Z,96140.53
2022-07-29T07:15:55.957Z,96154.66
2022-07-29T07:21:01.277Z,96161.03
2022-07-29T07:26:04.995Z,96157.44
2022-07-29T07:31:07.945Z,96159.84
2022-07-29T07:36:11.495Z,96135.41
2022-07-29T07:41:14.545Z,96136.97
2022-07-29T07:46:19.203Z,96145.25
2022-07-29T07:51:23.544Z,96142.41
2022-07-29T07:56:35.029Z,96149.25
2022-07-29T08:01:55.233Z,96142.00
2022-07-29T08:07:00.095Z,96107.09
2022-07-29T08:12:07.484Z,96139.25
2022-07-29T08:17:10.678Z,96143.56
2022-07-29T08:22:13.609Z,96138.50
2022-07-29T08:27:41.122Z,96156.34
2022-07-29T08:32:56.117Z,96148.66
2022-07-29T08:38:00.348Z,96146.38
2022-07-29T08:43:09.866Z,96142.63
2022-07-29T08:48:14.645Z,96153.19
2022-07-29T08:53:19.711Z,96153.50
2022-07-29T08:58:24.984Z,96151.59
2022-07-29T09:03:34.364Z,96145.47
2022-07-29T09:08:37.943Z,96142.91
2022-07-29T09:13:41.432Z,96148.06
2022-07-29T09:18:47.070Z,96158.88
2022-07-29T09:24:03.710Z,96154.91
2022-07-29T09:29:15.069Z,96149.75
2022-07-29T09:34:31.505Z,96146.28
2022-07-29T09:39:37.802Z,96146.97
2022-07-29T09:44:51.821Z,96144.78
2022-07-29T09:50:01.907Z,96150.41
2022-07-29T09:55:10.560Z,96143.00
2022-07-29T10:00:23.590Z,96153.88
2022-07-29T10:05:36.815Z,96142.00
2022-07-29T10:10:43.429Z,96136.75
2022-07-29T10:15:47.982Z,96145.19
2022-07-29T10:20:51.280Z,96146.75
2022-07-29T10:25:54.719Z,96135.88
2022-07-29T10:31:04.039Z,96142.34
2022-07-29T10:36:43.286Z,96148.94
2022-07-29T10:41:50.456Z,96147.44
2022-07-29T10:46:56.322Z,96146.28
2022-07-29T10:52:02.516Z,96139.50
2022-07-29T10:57:25.677Z,96137.44
2022-07-29T11:02:50.605Z,96131.69
2022-07-29T11:08:19.945Z,96121.69
2022-07-29T11:13:46.516Z,96124.09
2022-07-29T11:19:14.548Z,96136.47
2022-07-29T11:24:28.724Z,96126.59
2022-07-29T11:29:40.260Z,96122.94
2022-07-29T11:34:47.120Z,96120.56
2022-07-29T11:45:43.113Z,96114.91
2022-07-29T11:50:49.043Z,96106.44
2022-07-29T11:55:58.574Z,96100.84
2022-07-29T12:06:25.664Z,96105.09
2022-07-29T12:11:30.307Z,96089.56
2022-07-29T12:16:37.943Z,96091.03
2022-07-29T12:21:59.391Z,96077.28
2022-07-29T12:27:03.452Z,96095.19
2022-07-29T12:32:14.606Z,96088.94
2022-07-29T12:37:41.211Z,96090.75
2022-07-29T12:43:13.252Z,96088.38
2022-07-29T12:48:16.488Z,96087.38
2022-07-29T12:53:19.612Z,96081.19
2022-07-29T12:58:40.393Z,96082.28
2022-07-29T13:03:59.837Z,96076.34
2022-07-29T13:09:15.912Z,96072.09
2022-07-29T13:14:34.940Z,96069.38
2022-07-29T13:19:43.794Z,96055.06
2022-07-29T13:24:57.959Z,96068.09
2022-07-29T13:30:04.930Z,96075.00
2022-07-29T13:35:10.172Z,96068.06
2022-07-29T13:40:13.767Z,96072.53
2022-07-29T13:45:16.899Z,96077.84
2022-07-29T13:50:22.856Z,96065.28
2022-07-29T13:55:26.426Z,96061.28
2022-07-29T14:00:29.390Z,96050.09
2022-07-29T14:05:33.969Z,96033.13
2022-07-29T14:10:37.273Z,96031.66
2022-07-29T14:15:41.310Z,96027.13
2022-07-29T14:20:44.296Z,96034.31
2022-07-29T14:25:48.007Z,96038.66
2022-07-29T14:30:52.538Z,96039.13
2022-07-29T14:35:56.094Z,96038.00
2022-07-29T14:41:04.684Z,96031.78
2022-07-29T14:46:08.997Z,96046.50
2022-07-29T14:51:12.268Z,96036.22
2022-07-29T14:56:36.064Z,96037.25
2022-07-29T15:01:39.059Z,96054.34
2022-07-29T15:06:42.652Z,96058.84
2022-07-29T15:11:46.139Z,96058.06
2022-07-29T15:16:49.582Z,96055.03
2022-07-29T15:21:59.572Z,96064.44
2022-07-29T15:27:03.174Z,96059.06
2022-07-29T15:32:06.997Z,96060.75
2022-07-29T15:37:10.057Z,96065.13
2022-07-29T15:42:14.528Z,96049.97
2022-07-29T15:47:23.653Z,96056.47
2022-07-29T15:52:29.556Z,96058.91
2022-07-29T15:57:32.708Z,96067.75
2022-07-29T16:02:38.885Z,96054.78
2022-07-29T16:07:41.923Z,96054.81
2022-07-29T16:12:47.719Z,96055.78
2022-07-29T16:17:51.272Z,96072.31
2022-07-29T16:22:55.984Z,96078.75
2022-07-29T16:27:59.987Z,96069.69
2022-07-29T16:33:08.073Z,96078.03
2022-07-29T16:38:11.626Z,96080.66
2022-07-29T16:43:14.966Z,96083.09
2022-07-29T16:48:19.327Z,96086.28
2022-07-29T16:53:26.138Z,96095.47
2022-07-29T16:58:31.739Z,96098.28
2022-07-29T17:09:07.148Z,96140.56
2022-07-29T17:14:10.998Z,96133.16
2022-07-29T17:19:14.147Z,96140.16
2022-07-29T17:24:17.451Z,96134.72
2022-07-29T17:29:20.644Z,96143.94
2022-07-29T17:34:23.640Z,96148.00
2022-07-29T17:39:26.734Z,96160.38
2022-07-29T17:44:29.945Z,96199.84
2022-07-29T17:49:33.594Z,96226.94
2022-07-29T17:54:39.643Z,96234.22
2022-07-29T17:59:43.121Z,96249.91
2022-07-29T18:04:46.446Z,96234.06
2022-07-29T18:09:58.628Z,96237.81
2022-07-29T18:15:05.513Z,96240.16
2022-07-29T18:20:08.924Z,96241.50
2022-07-29T18:25:13.180Z,96241.94
2022-07-29T18:30:16.858Z,96249.88
2022-07-29T18:35:23.192Z,96236.97
2022-07-29T18:40:26.647Z,96250.19
2022-07-29T18:45:32.839Z,96250.19
2022-07-29T18:50:36.924Z,96270.44
2022-07-29T18:56:20.428Z,96232.72
2022-07-29T19:57:41.977Z,96289.34
2022-07-29T20:08:28.871Z,96325.66
2022-07-29T20:13:37.109Z,96295.47
2022-07-29T20:19:17.629Z,96288.63
2022-07-29T20:25:23.091Z,96333.81
2022-07-29T20:30:31.817Z,96294.75
2022-07-29T20:35:36.224Z,96322.16
2022-07-29T20:40:40.319Z,96327.22
2022-07-29T20:45:43.239Z,96325.69
2022-07-29T20:50:47.653Z,96330.56
2022-07-29T20:55:50.788Z,96317.28
2022-07-29T21:00:54.518Z,96332.59
2022-07-29T21:06:00.648Z,96325.22
2022-07-29T21:11:04.528Z,96335.91
2022-07-29T21:16:14.946Z,96327.75
2022-07-29T21:21:18.062Z,96322.69
2022-07-29T21:26:21.439Z,96325.50
2022-07-29T21:31:24.713Z,96327.00
2022-07-29T21:36:47.751Z,96324.72
2022-07-29T21:41:51.291Z,96326.75
2022-07-29T21:46:57.682Z,96323.94
2022-07-29T21:52:01.173Z,96323.44
2022-07-29T21:57:08.062Z,96326.75
2022-07-29T22:02:11.256Z,96326.47
2022-07-29T22:07:14.532Z,96317.38
2022-07-29T22:12:20.751Z,96314.28
2022-07-29T22:17:26.727Z,96327.72
2022-07-29T22:22:30.089Z,96321.63
2022-07-29T22:27:33.860Z,96320.91
2022-07-29T22:32:37.178Z,96318.09
2022-07-29T22:37:40.132Z,96322.69
2022-07-29T22:42:44.487Z,96320.91
2022-07-29T22:47:48.662Z,96331.81
2022-07-29T22:52:54.740Z,96317.84
2022-07-29T22:57:57.990Z,96312.53
2022-07-29T23:03:01.525Z,96306.66
2022-07-29T23:08:04.732Z,96301.34
2022-07-29T23:13:10.765Z,96290.66
2022-07-29T23:18:14.067Z,96287.63
2022-07-29T23:23:20.183Z,96270.59
2022-07-29T23:28:23.571Z,96283.56
2022-07-29T23:33:26.645Z,96258.44
2022-07-29T23:38:29.614Z,96269.84
2022-07-29T23:43:36.167Z,96270.34
2022-07-29T23:48:39.286Z,96272.13
2022-07-29T23:53:54.077Z,96266.81
2022-07-29T23:58:57.704Z,96263.75
